createdAt,value
2022-10-09T00:00:29.240Z,9.77
2022-10-09T00:02:56.458Z,12.48
2022-10-09T00:05:26.765Z,10.43
2022-10-09T00:07:54.661Z,14.10
2022-10-09T00:10:22.310Z,12.98
2022-10-09T00:12:49.940Z,13.38
2022-10-09T00:15:17.620Z,12.52
2022-10-09T00:17:45.168Z,10.80
2022-10-09T00:20:12.708Z,14.23
2022-10-09T00:22:40.233Z,10.98
2022-10-09T00:25:07.755Z,11.98
2022-10-09T00:27:34.946Z,14.80
2022-10-09T00:30:02.289Z,12.68
2022-10-09T00:32:29.419Z,13.07
2022-10-09T00:34:56.557Z,17.52
2022-10-09T00:37:23.860Z,11.80
2022-10-09T00:39:51.006Z,12.27
2022-10-09T00:42:18.144Z,14.52
2022-10-09T00:44:50.082Z,13.13
2022-10-09T00:47:26.336Z,14.00
2022-10-09T00:49:55.494Z,12.93
2022-10-09T00:52:24.041Z,15.07
2022-10-09T00:54:51.775Z,12.13
2022-10-09T00:57:19.344Z,12.10
2022-10-09T00:59:46.582Z,12.82
2022-10-09T01:02:13.793Z,12.15
2022-10-09T01:04:41.085Z,13.95
2022-10-09T01:07:26.999Z,12.57
2022-10-09T01:10:23.622Z,12.80
2022-10-09T01:13:09.501Z,13.55
2022-10-09T01:15:36.826Z,13.63
2022-10-09T01:18:13.549Z,12.98
2022-10-09T01:21:00.341Z,12.77
2022-10-09T01:23:47.746Z,12.93
2022-10-09T01:26:16.118Z,14.07
2022-10-09T01:28:52.812Z,13.63
2022-10-09T01:31:21.541Z,16.02
2022-10-09T01:33:49.263Z,13.98
2022-10-09T01:36:17.367Z,17.00
2022-10-09T01:38:45.821Z,12.45
2022-10-09T01:41:12.986Z,15.07
2022-10-09T01:43:41.176Z,16.33
2022-10-09T01:46:19.002Z,14.48
2022-10-09T01:48:48.560Z,14.48
2022-10-09T01:51:16.859Z,16.95
2022-10-09T01:53:45.082Z,14.40
2022-10-09T01:56:14.663Z,21.23
2022-10-09T01:58:54.480Z,16.48
2022-10-09T02:01:30.077Z,17.92
2022-10-09T02:03:58.947Z,17.13
2022-10-09T02:06:27.201Z,16.15
2022-10-09T02:08:55.657Z,18.90
2022-10-09T02:11:25.367Z,18.25
2022-10-09T02:13:53.299Z,20.95
2022-10-09T02:16:23.284Z,19.63
2022-10-09T02:18:53.736Z,22.00
2022-10-09T02:21:30.226Z,23.05
2022-10-09T02:23:59.611Z,20.25
2022-10-09T02:26:27.442Z,23.83
2022-10-09T02:28:54.839Z,22.35
2022-10-09T02:31:25.340Z,19.45
2022-10-09T02:33:59.432Z,20.60
2022-10-09T02:36:27.688Z,17.73
2022-10-09T02:38:55.451Z,22.58
2022-10-09T02:41:23.180Z,21.45
2022-10-09T02:43:50.488Z,27.40
2022-10-09T02:46:17.778Z,23.83
2022-10-09T02:48:44.966Z,21.83
2022-10-09T02:51:12.223Z,20.90
2022-10-09T02:53:39.594Z,20.02
2022-10-09T02:56:06.811Z,22.25
2022-10-09T02:58:34.790Z,21.80
2022-10-09T03:01:02.186Z,20.98
2022-10-09T03:03:29.384Z,21.27
2022-10-09T03:06:02.690Z,23.33
2022-10-09T03:08:29.899Z,21.70
2022-10-09T03:10:57.070Z,20.10
2022-10-09T03:13:24.467Z,23.70
2022-10-09T03:15:51.697Z,22.40
2022-10-09T03:18:19.202Z,19.33
2022-10-09T03:20:46.935Z,21.58
2022-10-09T03:23:14.136Z,18.90
2022-10-09T03:25:41.276Z,20.80
2022-10-09T03:28:08.577Z,20.80
2022-10-09T03:30:35.713Z,22.55
2022-10-09T03:33:03.099Z,20.20
2022-10-09T03:35:30.378Z,20.33
2022-10-09T03:37:57.631Z,19.05
2022-10-09T03:40:24.775Z,22.35
2022-10-09T03:42:52.188Z,21.77
2022-10-09T03:45:19.397Z,23.70
2022-10-09T03:47:46.541Z,25.48
2022-10-09T03:50:13.838Z,20.17
2022-10-09T03:52:41.112Z,25.80
2022-10-09T03:55:08.508Z,21.52
2022-10-09T03:57:36.588Z,24.83
2022-10-09T04:00:04.494Z,23.75
2022-10-09T04:02:32.648Z,24.52
2022-10-09T04:05:00.097Z,25.10
2022-10-09T04:07:27.334Z,25.35
2022-10-09T04:09:54.607Z,22.67
2022-10-09T04:12:21.902Z,22.55
2022-10-09T04:14:49.120Z,24.80
2022-10-09T04:17:16.291Z,25.90
2022-10-09T04:19:43.589Z,24.90
2022-10-09T04:22:10.739Z,25.83
2022-10-09T04:24:37.893Z,27.67
2022-10-09T04:27:05.465Z,24.45
2022-10-09T04:29:32.617Z,25.08
2022-10-09T04:31:59.846Z,24.23
2022-10-09T04:34:27.142Z,23.00
2022-10-09T04:36:54.306Z,21.85
2022-10-09T04:39:21.526Z,22.10
2022-10-09T04:41:48.831Z,23.58
2022-10-09T04:44:16.018Z,21.58
2022-10-09T04:46:43.215Z,18.40
2022-10-09T04:49:14.067Z,19.40
2022-10-09T04:51:41.716Z,16.60
2022-10-09T04:54:09.890Z,24.38
2022-10-09T04:56:37.307Z,23.67
2022-10-09T04:59:04.522Z,20.13
2022-10-09T05:01:37.085Z,20.58
2022-10-09T05:04:05.476Z,17.83
2022-10-09T05:06:32.661Z,18.92
2022-10-09T05:08:59.834Z,21.85
2022-10-09T05:11:27.158Z,22.48
2022-10-09T05:13:55.601Z,18.73
2022-10-09T05:16:27.092Z,24.17
2022-10-09T05:18:56.093Z,18.27
2022-10-09T05:21:23.278Z,18.90
2022-10-09T05:23:50.598Z,21.10
2022-10-09T05:26:19.004Z,16.70
2022-10-09T05:28:46.285Z,19.08
2022-10-09T05:31:33.928Z,21.50
2022-10-09T05:34:02.066Z,20.67
2022-10-09T05:36:29.276Z,22.17
2022-10-09T05:38:57.598Z,21.73
2022-10-09T05:41:24.835Z,18.83
2022-10-09T05:43:51.978Z,17.48
2022-10-09T05:46:20.576Z,18.35
2022-10-09T05:48:52.431Z,18.83
2022-10-09T05:51:23.974Z,19.35
2022-10-09T05:53:51.437Z,22.35
2022-10-09T05:56:20.238Z,19.55
2022-10-09T05:58:57.663Z,25.75
2022-10-09T06:01:26.154Z,21.48
2022-10-09T06:03:54.708Z,23.52
2022-10-09T06:06:22.654Z,21.35
2022-10-09T06:08:49.840Z,20.05
2022-10-09T06:11:19.120Z,19.10
2022-10-09T06:13:46.504Z,21.30
2022-10-09T06:16:14.476Z,23.85
2022-10-09T06:18:45.511Z,20.58
2022-10-09T06:21:16.347Z,18.13
2022-10-09T06:23:43.935Z,18.75
2022-10-09T06:26:14.325Z,16.35
2022-10-09T06:28:41.754Z,18.70
2022-10-09T06:31:10.634Z,16.50
2022-10-09T06:33:39.231Z,20.13
2022-10-09T06:36:10.212Z,22.05
2022-10-09T06:41:05.720Z,22.25
2022-10-09T06:43:33.052Z,21.77
2022-10-09T06:46:04.511Z,25.45
2022-10-09T06:48:32.482Z,18.80
2022-10-09T06:51:03.272Z,20.25
2022-10-09T06:53:30.463Z,23.73
2022-10-09T06:55:59.033Z,18.00
2022-10-09T06:58:26.578Z,17.65
2022-10-09T07:01:06.004Z,17.50
2022-10-09T07:03:33.587Z,18.67
2022-10-09T07:06:17.209Z,21.73
2022-10-09T07:08:45.634Z,21.25
2022-10-09T07:11:14.168Z,20.52
2022-10-09T07:13:41.761Z,21.48
2022-10-09T07:16:09.798Z,22.00
2022-10-09T07:18:37.500Z,21.40
2022-10-09T07:21:05.827Z,23.15
2022-10-09T07:23:33.878Z,19.27
2022-10-09T07:26:01.858Z,22.17
2022-10-09T07:28:30.403Z,22.15
2022-10-09T07:30:57.718Z,19.00
2022-10-09T07:33:24.902Z,21.55
2022-10-09T07:35:56.085Z,22.50
2022-10-09T07:40:52.413Z,20.33
2022-10-09T07:43:21.266Z,23.52
2022-10-09T07:45:48.616Z,24.00
2022-10-09T07:48:15.786Z,24.02
2022-10-09T07:50:43.129Z,21.42
2022-10-09T07:53:10.309Z,20.02
2022-10-09T07:55:37.490Z,21.90
2022-10-09T07:58:04.690Z,23.10
2022-10-09T08:00:31.911Z,20.45
2022-10-09T08:02:59.092Z,30.63
2022-10-09T08:05:26.244Z,27.42
2022-10-09T08:07:53.578Z,22.00
2022-10-09T08:10:20.842Z,23.77
2022-10-09T08:12:48.371Z,22.60
2022-10-09T08:15:15.956Z,21.38
2022-10-09T08:17:43.239Z,25.73
2022-10-09T08:20:10.484Z,25.85
2022-10-09T08:22:37.727Z,20.75
2022-10-09T08:25:05.075Z,22.75
2022-10-09T08:27:32.248Z,21.98
2022-10-09T08:29:59.467Z,21.15
2022-10-09T08:32:26.790Z,21.40
2022-10-09T08:34:53.955Z,19.60
2022-10-09T08:37:21.178Z,23.05
2022-10-09T08:39:48.377Z,24.88
2022-10-09T08:42:34.591Z,23.52
2022-10-09T08:45:02.779Z,20.30
2022-10-09T08:47:40.832Z,21.90
2022-10-09T08:50:13.774Z,24.02
2022-10-09T08:52:50.513Z,20.75
2022-10-09T08:55:23.448Z,21.80
2022-10-09T08:57:52.259Z,20.88
2022-10-09T09:00:20.625Z,17.48
2022-10-09T09:02:51.115Z,19.77
2022-10-09T09:05:31.070Z,16.52
2022-10-09T09:08:01.004Z,20.38
2022-10-09T09:10:40.790Z,17.63
2022-10-09T09:13:26.917Z,16.30
2022-10-09T09:16:06.516Z,12.52
2022-10-09T09:19:00.149Z,19.08
2022-10-09T09:21:48.624Z,12.48
2022-10-09T09:24:18.735Z,13.32
2022-10-09T09:26:47.840Z,14.95
2022-10-09T09:29:16.207Z,12.68
2022-10-09T09:31:44.752Z,11.20
2022-10-09T09:34:11.947Z,12.10
2022-10-09T09:36:42.031Z,11.65
2022-10-09T09:42:20.392Z,10.75
2022-10-09T09:44:50.283Z,8.00
2022-10-09T09:47:43.699Z,10.07
2022-10-09T09:50:28.466Z,9.02
2022-10-09T09:53:02.036Z,8.10
2022-10-09T09:55:31.024Z,13.50
2022-10-09T09:58:18.143Z,10.15
2022-10-09T10:00:56.192Z,7.97
2022-10-09T10:03:24.256Z,8.95
2022-10-09T10:05:51.857Z,9.70
2022-10-09T10:08:23.290Z,9.23
2022-10-09T10:10:51.737Z,8.90
2022-10-09T10:13:20.482Z,10.25
2022-10-09T10:15:58.034Z,9.93
2022-10-09T10:18:26.415Z,7.95
2022-10-09T10:20:55.381Z,8.27
2022-10-09T10:23:25.499Z,8.48
2022-10-09T10:25:59.745Z,8.20
2022-10-09T10:28:30.368Z,8.48
2022-10-09T10:30:57.715Z,7.80
2022-10-09T10:33:29.861Z,7.18
2022-10-09T10:35:59.084Z,7.45
2022-10-09T10:38:44.571Z,9.00
2022-10-09T10:41:11.826Z,8.65
2022-10-09T10:43:44.296Z,9.38
2022-10-09T10:46:26.739Z,11.15
2022-10-09T10:48:53.997Z,8.10
2022-10-09T10:51:21.142Z,12.95
2022-10-09T10:53:48.728Z,8.25
2022-10-09T10:56:24.881Z,8.75
2022-10-09T10:58:58.758Z,6.55
2022-10-09T11:01:25.992Z,6.97
2022-10-09T11:04:12.094Z,8.77
2022-10-09T11:06:57.614Z,10.15
2022-10-09T11:09:29.891Z,5.78
2022-10-09T11:12:01.700Z,11.00
2022-10-09T11:14:28.846Z,8.00
2022-10-09T11:17:01.279Z,9.20
2022-10-09T11:19:47.052Z,12.10
2022-10-09T11:22:23.781Z,6.30
2022-10-09T11:25:13.934Z,10.68
2022-10-09T11:27:56.059Z,8.43
2022-10-09T11:30:25.221Z,8.93
2022-10-09T11:32:52.404Z,9.15
2022-10-09T11:35:21.848Z,8.27
2022-10-09T11:37:54.413Z,8.23
2022-10-09T11:40:23.880Z,9.45
2022-10-09T11:43:09.421Z,9.02
2022-10-09T11:45:36.714Z,9.35
2022-10-09T11:48:03.930Z,12.45
2022-10-09T11:50:49.437Z,10.77
2022-10-09T11:53:18.165Z,10.35
2022-10-09T11:55:46.517Z,11.43
2022-10-09T11:58:18.555Z,11.50
2022-10-09T12:00:46.577Z,11.52
2022-10-09T12:03:33.585Z,10.32
2022-10-09T12:06:17.684Z,13.52
2022-10-09T12:09:05.138Z,11.30
2022-10-09T12:11:33.510Z,14.02
2022-10-09T12:14:05.767Z,13.13
2022-10-09T12:16:37.397Z,12.38
2022-10-09T12:19:06.851Z,10.20
2022-10-09T12:21:54.209Z,15.80
2022-10-09T12:24:28.668Z,14.35
2022-10-09T12:26:57.120Z,15.18
2022-10-09T12:29:26.394Z,14.30
2022-10-09T12:31:55.037Z,14.82
2022-10-09T12:34:27.256Z,17.38
2022-10-09T12:37:04.496Z,19.67
2022-10-09T12:39:33.758Z,18.50
2022-10-09T12:42:00.968Z,22.58
2022-10-09T12:44:32.185Z,18.55
2022-10-09T12:47:04.415Z,25.60
2022-10-09T12:49:31.674Z,20.58
2022-10-09T12:51:59.762Z,18.52
2022-10-09T12:54:27.438Z,17.63
2022-10-09T12:56:55.999Z,20.08
2022-10-09T12:59:24.510Z,19.00
2022-10-09T13:01:55.110Z,18.00
2022-10-09T13:04:25.529Z,18.50
2022-10-09T13:06:53.531Z,21.77
2022-10-09T13:09:50.295Z,18.00
2022-10-09T13:12:24.852Z,19.13
2022-10-09T13:14:56.914Z,22.98
2022-10-09T13:17:27.156Z,20.92
2022-10-09T13:19:55.265Z,22.43
2022-10-09T13:22:23.448Z,21.42
2022-10-09T13:24:53.206Z,22.20
2022-10-09T13:27:21.211Z,23.88
2022-10-09T13:29:48.771Z,24.10
2022-10-09T13:32:17.011Z,26.92
2022-10-09T13:34:44.638Z,22.02
2022-10-09T13:37:15.742Z,25.33
2022-10-09T13:39:42.943Z,27.45
2022-10-09T13:42:14.987Z,29.65
2022-10-09T13:44:42.348Z,26.35
2022-10-09T13:47:10.907Z,25.83
2022-10-09T13:49:38.080Z,24.35
2022-10-09T13:52:05.423Z,28.33
2022-10-09T13:54:32.599Z,27.15
2022-10-09T13:56:59.803Z,26.33
2022-10-09T13:59:27.062Z,27.23
2022-10-09T14:01:54.314Z,29.55
2022-10-09T14:04:21.594Z,26.92
2022-10-09T14:06:48.851Z,28.83
2022-10-09T14:09:16.033Z,28.80
2022-10-09T14:11:43.449Z,28.15
2022-10-09T14:14:10.743Z,30.95
2022-10-09T14:16:37.902Z,28.63
2022-10-09T14:19:06.129Z,31.20
2022-10-09T14:21:33.869Z,27.35
2022-10-09T14:24:01.791Z,31.67
2022-10-09T14:26:29.418Z,29.27
2022-10-09T14:28:59.022Z,30.83
2022-10-09T14:31:26.666Z,29.38
2022-10-09T14:33:56.070Z,31.00
2022-10-09T14:36:23.435Z,33.40
2022-10-09T14:38:50.704Z,28.92
2022-10-09T14:41:18.206Z,33.22
2022-10-09T14:43:45.942Z,28.65
2022-10-09T14:46:16.797Z,26.35
2022-10-09T14:48:45.041Z,28.38
2022-10-09T14:51:13.299Z,25.90
2022-10-09T14:53:40.511Z,28.23
2022-10-09T14:56:09.174Z,30.10
2022-10-09T14:58:37.267Z,28.80
2022-10-09T15:01:04.802Z,35.97
2022-10-09T15:03:33.252Z,30.92
2022-10-09T15:06:01.256Z,30.70
2022-10-09T15:08:30.216Z,28.70
2022-10-09T15:10:57.401Z,30.35
2022-10-09T15:13:24.641Z,30.65
2022-10-09T15:15:51.934Z,31.58
2022-10-09T15:18:19.135Z,31.58
2022-10-09T15:20:47.206Z,26.83
2022-10-09T15:23:14.356Z,26.23
2022-10-09T15:25:48.667Z,31.30
2022-10-09T15:28:17.127Z,28.98
2022-10-09T15:30:44.999Z,30.65
2022-10-09T15:33:12.341Z,32.38
2022-10-09T15:35:39.821Z,25.08
2022-10-09T15:38:07.498Z,26.67
2022-10-09T15:40:42.938Z,32.30
2022-10-09T15:43:10.182Z,28.77
2022-10-09T15:45:37.339Z,28.48
2022-10-09T15:48:04.709Z,29.88
2022-10-09T15:50:32.169Z,32.53
2022-10-09T15:52:59.909Z,28.73
2022-10-09T15:55:27.209Z,31.48
2022-10-09T15:57:54.384Z,29.75
2022-10-09T16:00:21.516Z,24.70
2022-10-09T16:02:49.104Z,29.13
2022-10-09T16:05:18.987Z,27.15
2022-10-09T16:07:49.434Z,29.90
2022-10-09T16:10:16.633Z,29.65
2022-10-09T16:12:43.822Z,30.55
2022-10-09T16:15:11.412Z,30.40
2022-10-09T16:17:38.624Z,28.83
2022-10-09T16:20:06.077Z,28.98
2022-10-09T16:22:33.479Z,33.10
2022-10-09T16:25:00.694Z,28.05
2022-10-09T16:27:27.919Z,29.67
2022-10-09T16:29:55.223Z,31.20
2022-10-09T16:32:22.442Z,29.60
2022-10-09T16:34:50.287Z,29.02
2022-10-09T16:37:17.700Z,28.25
2022-10-09T16:39:45.450Z,31.73
2022-10-09T16:42:12.610Z,28.85
2022-10-09T16:44:40.031Z,29.25
2022-10-09T16:47:07.262Z,29.75
2022-10-09T16:49:34.656Z,30.50
2022-10-09T16:52:02.003Z,27.00
2022-10-09T16:54:29.213Z,29.77
2022-10-09T16:56:56.396Z,26.98
2022-10-09T16:59:23.733Z,26.38
2022-10-09T17:01:51.310Z,30.60
2022-10-09T17:04:18.590Z,29.60
2022-10-09T17:06:46.592Z,33.35
2022-10-09T17:09:14.526Z,30.02
2022-10-09T17:11:41.902Z,33.97
2022-10-09T17:14:09.262Z,32.92
2022-10-09T17:16:38.705Z,27.30
2022-10-09T17:19:06.441Z,30.52
2022-10-09T17:21:34.816Z,32.67
2022-10-09T17:24:03.743Z,29.55
2022-10-09T17:26:31.201Z,31.25
2022-10-09T17:28:59.398Z,27.40
2022-10-09T17:31:26.933Z,30.75
2022-10-09T17:33:55.639Z,31.33
2022-10-09T17:36:23.855Z,33.92
2022-10-09T17:38:51.443Z,33.10
2022-10-09T17:41:19.718Z,28.77
2022-10-09T17:43:47.014Z,31.02
2022-10-09T17:46:14.845Z,34.75
2022-10-09T17:48:45.229Z,33.05
2022-10-09T17:51:16.989Z,33.13
2022-10-09T17:53:44.932Z,30.27
2022-10-09T17:56:12.175Z,39.10
2022-10-09T17:58:39.470Z,34.55
2022-10-09T18:01:07.948Z,33.75
2022-10-09T18:03:35.488Z,33.58
2022-10-09T18:06:05.953Z,30.35
2022-10-09T18:08:33.190Z,33.42
2022-10-09T18:11:08.137Z,29.70
2022-10-09T18:13:36.299Z,34.30
2022-10-09T18:16:11.630Z,31.45
2022-10-09T18:18:38.933Z,36.55
2022-10-09T18:21:07.385Z,29.42
2022-10-09T18:23:34.790Z,31.85
2022-10-09T18:26:02.353Z,27.55
2022-10-09T18:28:29.545Z,27.23
2022-10-09T18:30:58.744Z,22.48
2022-10-09T18:33:25.949Z,26.17
2022-10-09T18:35:53.238Z,21.75
2022-10-09T18:38:20.601Z,21.75
2022-10-09T18:40:47.816Z,23.77
2022-10-09T18:43:14.986Z,25.40
2022-10-09T18:45:46.562Z,20.20
2022-10-09T18:48:14.789Z,14.95
2022-10-09T18:50:42.143Z,12.70
2022-10-09T18:53:09.479Z,17.17
2022-10-09T18:55:36.686Z,11.73
2022-10-09T18:58:04.266Z,11.50
2022-10-09T19:00:32.049Z,10.93
2022-10-09T19:02:59.266Z,11.73
2022-10-09T19:05:26.473Z,11.32
2022-10-09T19:07:55.654Z,11.57
2022-10-09T19:10:23.110Z,13.20
2022-10-09T19:12:52.767Z,11.18
2022-10-09T19:15:20.387Z,12.50
2022-10-09T19:17:47.759Z,13.95
2022-10-09T19:20:15.167Z,12.60
2022-10-09T19:22:42.939Z,12.13
2022-10-09T19:25:10.145Z,9.70
2022-10-09T19:27:37.669Z,12.07
2022-10-09T19:30:05.382Z,13.57
2022-10-09T19:32:32.567Z,11.27
2022-10-09T19:34:59.752Z,8.57
2022-10-09T19:37:29.684Z,11.20
2022-10-09T19:39:57.316Z,9.50
2022-10-09T19:42:24.890Z,10.10
2022-10-09T19:44:52.158Z,7.72
2022-10-09T19:47:19.396Z,8.50
2022-10-09T19:49:46.556Z,12.90
2022-10-09T19:52:13.874Z,10.77
2022-10-09T19:54:41.114Z,9.73
2022-10-09T19:57:08.270Z,9.07
2022-10-09T19:59:35.674Z,12.32
2022-10-09T20:02:02.831Z,8.35
2022-10-09T20:04:30.011Z,11.50
2022-10-09T20:06:57.301Z,9.52
2022-10-09T20:09:24.668Z,7.43
2022-10-09T20:11:51.903Z,10.60
2022-10-09T20:14:20.603Z,11.18
2022-10-09T20:16:47.783Z,7.50
2022-10-09T20:19:15.001Z,10.90
2022-10-09T20:21:42.228Z,9.18
2022-10-09T20:24:09.662Z,9.32
2022-10-09T20:26:40.899Z,6.38
2022-10-09T20:29:10.141Z,6.80
2022-10-09T20:31:37.315Z,7.65
2022-10-09T20:34:04.463Z,8.05
2022-10-09T20:36:36.642Z,5.75
2022-10-09T20:39:08.795Z,7.60
2022-10-09T20:41:36.326Z,5.55
2022-10-09T20:44:04.098Z,5.68
2022-10-09T20:46:32.634Z,6.28
2022-10-09T20:49:00.123Z,6.15
2022-10-09T20:51:27.580Z,6.32
2022-10-09T20:53:56.010Z,5.88
2022-10-09T20:56:24.338Z,9.43
2022-10-09T20:58:51.579Z,9.02
2022-10-09T21:01:19.028Z,5.43
2022-10-09T21:03:46.238Z,9.30
2022-10-09T21:06:15.171Z,6.65
2022-10-09T21:08:42.382Z,8.57
2022-10-09T21:11:10.998Z,11.32
2022-10-09T21:13:38.602Z,8.30
2022-10-09T21:16:06.906Z,10.38
2022-10-09T21:18:34.182Z,5.97
2022-10-09T21:21:05.714Z,4.50
2022-10-09T21:23:32.866Z,4.63
2022-10-09T21:26:00.372Z,5.88
2022-10-09T21:28:27.764Z,5.40
2022-10-09T21:30:54.979Z,6.50
2022-10-09T21:33:22.139Z,9.90
2022-10-09T21:35:51.024Z,7.60
2022-10-09T21:38:22.263Z,9.88
2022-10-09T21:43:16.786Z,8.90
2022-10-09T21:45:44.023Z,6.50
2022-10-09T21:48:14.779Z,10.23
2022-10-09T21:50:41.995Z,7.60
2022-10-09T21:53:09.305Z,6.07
2022-10-09T21:55:37.872Z,5.78
2022-10-09T21:58:05.489Z,4.55
2022-10-09T22:00:32.779Z,6.72
2022-10-09T22:02:59.947Z,6.10
2022-10-09T22:05:27.421Z,5.57
2022-10-09T22:07:54.583Z,6.57
2022-10-09T22:10:21.738Z,6.53
2022-10-09T22:12:49.233Z,6.53
2022-10-09T22:15:16.689Z,5.13
2022-10-09T22:17:43.829Z,5.35
2022-10-09T22:20:11.135Z,5.82
2022-10-09T22:22:38.297Z,5.20
2022-10-09T22:25:05.732Z,4.93
2022-10-09T22:27:32.967Z,5.53
2022-10-09T22:30:00.133Z,8.55
2022-10-09T22:32:27.284Z,6.28
2022-10-09T22:34:54.624Z,4.22
2022-10-09T22:37:21.765Z,8.27
2022-10-09T22:39:49.632Z,3.67
2022-10-09T22:42:16.979Z,5.28
2022-10-09T22:44:44.122Z,7.07
2022-10-09T22:47:11.285Z,5.95
2022-10-09T22:49:38.629Z,3.35
2022-10-09T22:52:05.946Z,6.90
2022-10-09T22:54:33.134Z,7.30
2022-10-09T22:57:00.483Z,7.40
2022-10-09T22:59:27.709Z,4.88
2022-10-09T23:01:56.688Z,5.18
2022-10-09T23:04:24.177Z,6.35
2022-10-09T23:06:52.630Z,7.10
2022-10-09T23:09:20.288Z,4.15
2022-10-09T23:11:47.702Z,4.85
2022-10-09T23:14:14.942Z,5.88
2022-10-09T23:16:42.836Z,5.80
2022-10-09T23:19:10.952Z,7.57
2022-10-09T23:21:39.377Z,7.57
2022-10-09T23:24:06.620Z,7.05
2022-10-09T23:26:34.563Z,5.80
2022-10-09T23:29:03.445Z,10.13
2022-10-09T23:31:30.915Z,6.97
2022-10-09T23:33:58.450Z,6.57
2022-10-09T23:36:27.207Z,6.38
2022-10-09T23:38:54.739Z,6.00
2022-10-09T23:41:23.210Z,6.20
2022-10-09T23:43:50.803Z,5.07
2022-10-09T23:46:19.758Z,6.05
2022-10-09T23:48:57.345Z,6.25
2022-10-09T23:51:27.534Z,6.45
2022-10-09T23:53:54.909Z,5.43
2022-10-09T23:56:26.544Z,8.77
2022-10-09T23:58:54.380Z,6.30
